Decoded Metar for OISL (LAR in IRAN) (IATA:N/A) | Meteo·Mobile Aviation Weather
aviador You're here:

OISL Decoded Metar

LAR in IRAN
Report Time2018-11-21 08:00:00
UTC Time2018-11-21 08:17:23
Flight Rules vfr VFR
Wind310° at 06 kt
W.Decomp.*RWY 27: 4.7 kt HW 3.7 kt RCW
W.Rank310° ranks 9
Current wind is below 310° avg. (7.7)
Visibility9999 m
Phenomena:N/A
Clouds:N/A
Expected CloudBase > 5,200 ft AGL from Temp-Dew spread
CeilingNone
Temp21°C (ISA +11)
Dew Point08°C (43% RH)
AAT18.4°C
QNH1018 hPa
Density Alt3,878 ft
Elevation2,598 ft
Report Wrong Elevation
Raw Report
METAR OISL 210800Z 31006KT CAVOK 21/08 Q1018=

Extra information for OISL:More info

Metar Taf Metar & Taf Last 4 Metars F.Rules Stats Wind Profile Meteogram Temp Stats Airport Information Weather charts Add Link Nearby VenuesMetar ALERT Operation Metar Decoded Social comments